createdAt,value
2023-05-03T00:00:12.339Z,14.29
2023-05-03T00:01:33.853Z,14.18
2023-05-03T00:02:57.616Z,14.13
2023-05-03T00:04:19.117Z,14.21
2023-05-03T00:05:41.515Z,14.16
2023-05-03T00:07:04.088Z,14.19
2023-05-03T00:08:27.744Z,14.15
2023-05-03T00:09:51.878Z,14.17
2023-05-03T00:11:13.285Z,14.05
2023-05-03T00:12:38.830Z,14.09
2023-05-03T00:14:01.283Z,14.02
2023-05-03T00:15:26.741Z,14.00
2023-05-03T00:17:10.245Z,13.97
2023-05-03T00:18:32.552Z,14.04
2023-05-03T00:19:56.344Z,14.00
2023-05-03T00:21:20.161Z,14.02
2023-05-03T00:23:11.381Z,13.94
2023-05-03T00:24:41.449Z,13.91
2023-05-03T00:26:03.657Z,13.91
2023-05-03T00:27:28.542Z,13.82
2023-05-03T00:28:50.975Z,13.85
2023-05-03T00:30:15.695Z,13.87
2023-05-03T00:31:46.467Z,13.81
2023-05-03T00:33:32.887Z,13.88
2023-05-03T00:34:58.490Z,13.84
2023-05-03T00:36:20.615Z,13.78
2023-05-03T00:37:44.678Z,13.83
2023-05-03T00:39:07.416Z,13.84
2023-05-03T00:40:38.587Z,13.72
2023-05-03T00:42:00.443Z,13.79
2023-05-03T00:43:23.203Z,13.68
2023-05-03T00:44:48.873Z,13.82
2023-05-03T00:46:17.402Z,13.80
2023-05-03T00:47:39.828Z,13.76
2023-05-03T00:49:04.429Z,13.78
2023-05-03T00:50:34.735Z,13.82
2023-05-03T00:52:07.968Z,13.82
2023-05-03T00:53:32.492Z,13.74
2023-05-03T00:54:55.154Z,13.69
2023-05-03T00:56:21.465Z,13.78
2023-05-03T00:57:48.121Z,13.74
2023-05-03T00:59:16.204Z,13.75
2023-05-03T01:00:47.708Z,13.67
2023-05-03T01:02:28.702Z,13.72
2023-05-03T01:04:16.309Z,13.76
2023-05-03T01:06:01.322Z,13.70
2023-05-03T01:07:38.141Z,13.74
2023-05-03T01:09:07.018Z,13.72
2023-05-03T01:14:45.311Z,13.68
2023-05-03T01:16:12.775Z,13.66
2023-05-03T01:17:41.173Z,13.57
2023-05-03T01:19:27.120Z,13.65
2023-05-03T01:20:52.090Z,13.52
2023-05-03T01:22:23.802Z,13.55
2023-05-03T01:23:58.343Z,13.52
2023-05-03T01:25:21.630Z,13.56
2023-05-03T01:26:44.326Z,13.61
2023-05-03T01:28:05.886Z,13.66
2023-05-03T01:29:29.744Z,13.55
2023-05-03T01:30:56.782Z,13.66
2023-05-03T01:32:30.590Z,13.64
2023-05-03T01:34:04.179Z,13.57
2023-05-03T01:35:33.982Z,13.65
2023-05-03T01:37:03.481Z,13.63
2023-05-03T01:38:25.947Z,13.58
2023-05-03T01:39:55.490Z,13.56
2023-05-03T01:41:24.084Z,13.62
2023-05-03T01:42:47.739Z,13.60
2023-05-03T01:44:12.118Z,13.61
2023-05-03T01:45:34.339Z,13.60
2023-05-03T01:46:59.041Z,13.60
2023-05-03T01:48:21.870Z,13.48
2023-05-03T01:49:43.025Z,13.57
2023-05-03T01:51:06.079Z,13.52
2023-05-03T01:52:28.856Z,13.42
2023-05-03T01:53:50.074Z,13.47
2023-05-03T01:55:12.558Z,13.51
2023-05-03T01:56:53.044Z,13.36
2023-05-03T01:58:18.137Z,13.42
2023-05-03T01:59:40.714Z,13.44
2023-05-03T02:01:08.731Z,13.41
2023-05-03T02:02:34.396Z,13.44
2023-05-03T02:03:55.714Z,13.38
2023-05-03T02:05:18.028Z,13.37
2023-05-03T02:06:41.040Z,13.32
2023-05-03T02:08:02.231Z,13.38
2023-05-03T02:09:25.721Z,13.32
2023-05-03T02:10:47.927Z,13.35
2023-05-03T02:12:16.010Z,13.38
2023-05-03T02:13:39.018Z,13.24
2023-05-03T02:15:01.425Z,13.25
2023-05-03T02:16:22.739Z,13.33
2023-05-03T02:17:47.512Z,13.28
2023-05-03T02:19:11.262Z,13.25
2023-05-03T02:20:40.374Z,13.25
2023-05-03T02:22:01.956Z,13.23
2023-05-03T02:23:24.187Z,13.22
2023-05-03T02:24:47.138Z,13.16
2023-05-03T02:26:10.075Z,13.19
2023-05-03T02:27:32.636Z,13.20
2023-05-03T02:28:59.716Z,13.18
2023-05-03T02:30:22.501Z,13.09
2023-05-03T02:31:44.820Z,13.03
2023-05-03T02:33:06.011Z,12.99
2023-05-03T02:34:33.403Z,13.04
2023-05-03T02:35:55.743Z,12.98
2023-05-03T02:37:17.006Z,12.93
2023-05-03T02:38:40.306Z,12.95
2023-05-03T02:40:02.666Z,12.83
2023-05-03T02:41:25.448Z,12.88
2023-05-03T02:42:48.988Z,12.79
2023-05-03T02:44:18.089Z,12.78
2023-05-03T02:45:40.246Z,12.80
2023-05-03T02:47:04.985Z,12.67
2023-05-03T02:48:27.176Z,12.61
2023-05-03T02:49:49.717Z,12.68
2023-05-03T02:51:12.025Z,12.63
2023-05-03T02:52:33.030Z,12.61
2023-05-03T02:53:55.580Z,12.54
2023-05-03T02:55:17.575Z,12.45
2023-05-03T02:56:43.752Z,12.42
2023-05-03T02:58:13.525Z,12.39
2023-05-03T02:59:34.765Z,12.34
2023-05-03T03:00:57.563Z,12.32
2023-05-03T03:02:26.474Z,12.24
2023-05-03T03:03:49.883Z,12.17
2023-05-03T03:05:12.480Z,12.08
2023-05-03T03:06:36.125Z,11.97
2023-05-03T03:07:58.783Z,12.02
2023-05-03T03:09:21.632Z,11.92
2023-05-03T03:10:44.363Z,11.82
2023-05-03T03:12:06.747Z,11.90
2023-05-03T03:13:31.629Z,11.82
2023-05-03T03:14:55.322Z,11.71
2023-05-03T03:16:16.887Z,11.75
2023-05-03T03:17:40.412Z,11.59
2023-05-03T03:19:08.921Z,11.58
2023-05-03T03:20:31.886Z,11.51
2023-05-03T03:21:53.403Z,11.52
2023-05-03T03:23:16.069Z,11.55
2023-05-03T03:24:39.027Z,11.57
2023-05-03T03:26:02.264Z,11.50
2023-05-03T03:27:28.190Z,11.47
2023-05-03T03:28:53.979Z,11.39
2023-05-03T03:30:21.283Z,11.55
2023-05-03T03:31:53.942Z,11.54
2023-05-03T03:33:15.803Z,11.41
2023-05-03T03:34:39.256Z,11.54
2023-05-03T03:36:00.785Z,11.54
2023-05-03T03:37:28.143Z,11.55
2023-05-03T03:38:50.927Z,11.44
2023-05-03T03:40:13.600Z,11.50
2023-05-03T03:41:37.560Z,11.55
2023-05-03T03:43:01.489Z,11.52
2023-05-03T03:44:26.191Z,11.53
2023-05-03T03:45:49.596Z,11.55
2023-05-03T03:47:13.443Z,11.58
2023-05-03T03:48:34.854Z,11.66
2023-05-03T03:49:57.346Z,11.67
2023-05-03T03:51:20.135Z,11.71
2023-05-03T03:52:42.786Z,11.59
2023-05-03T03:54:05.117Z,11.72
2023-05-03T03:55:31.569Z,11.75
2023-05-03T03:57:10.994Z,11.74
2023-05-03T03:58:36.165Z,11.65
2023-05-03T04:00:02.716Z,11.73
2023-05-03T04:01:37.318Z,11.65
2023-05-03T04:03:00.636Z,11.72
2023-05-03T04:04:26.892Z,11.68
2023-05-03T04:05:51.513Z,11.67
2023-05-03T04:07:18.861Z,11.73
2023-05-03T04:08:43.801Z,11.69
2023-05-03T04:10:41.296Z,11.60
2023-05-03T04:12:04.594Z,11.64
2023-05-03T04:13:31.138Z,11.70
2023-05-03T04:14:54.347Z,11.56
2023-05-03T04:16:19.276Z,11.61
2023-05-03T04:17:40.985Z,11.53
2023-05-03T04:19:08.624Z,11.50
2023-05-03T04:20:35.382Z,11.46
2023-05-03T04:21:59.137Z,11.50
2023-05-03T04:23:24.908Z,11.43
2023-05-03T04:24:48.216Z,11.49
2023-05-03T04:26:20.334Z,11.52
2023-05-03T04:27:51.746Z,11.46
2023-05-03T04:29:14.751Z,11.48
2023-05-03T04:30:39.591Z,11.47
2023-05-03T04:32:04.380Z,11.51
2023-05-03T04:33:27.528Z,11.51
2023-05-03T04:34:53.954Z,11.47
2023-05-03T04:36:19.069Z,11.39
2023-05-03T04:37:43.623Z,11.50
2023-05-03T04:39:11.704Z,11.47
2023-05-03T04:40:35.091Z,11.48
2023-05-03T04:42:09.339Z,11.45
2023-05-03T04:43:33.184Z,11.52
2023-05-03T04:44:56.150Z,11.59
2023-05-03T04:46:18.771Z,11.54
2023-05-03T04:47:43.354Z,11.61
2023-05-03T04:49:05.879Z,11.66
2023-05-03T04:50:31.406Z,11.60
2023-05-03T04:51:55.196Z,11.69
2023-05-03T04:53:20.100Z,11.71
2023-05-03T04:54:54.625Z,11.71
2023-05-03T04:56:17.681Z,11.79
2023-05-03T04:57:39.797Z,11.96
2023-05-03T04:59:04.620Z,12.10
2023-05-03T05:00:28.023Z,12.25
2023-05-03T05:01:58.744Z,12.36
2023-05-03T05:03:22.495Z,12.37
2023-05-03T05:04:45.889Z,12.55
2023-05-03T05:06:13.636Z,12.69
2023-05-03T05:07:46.837Z,12.76
2023-05-03T05:09:09.524Z,12.79
2023-05-03T05:14:34.816Z,13.30
2023-05-03T05:16:00.719Z,13.36
2023-05-03T05:17:23.408Z,13.55
2023-05-03T05:18:48.563Z,13.69
2023-05-03T05:20:13.706Z,13.72
2023-05-03T05:21:45.272Z,13.83
2023-05-03T05:23:08.045Z,13.86
2023-05-03T05:24:54.344Z,14.05
2023-05-03T05:26:18.675Z,14.14
2023-05-03T05:27:41.778Z,14.26
2023-05-03T05:29:07.069Z,14.35
2023-05-03T05:30:30.166Z,14.40
2023-05-03T05:32:08.213Z,14.52
2023-05-03T05:33:31.768Z,14.55
2023-05-03T05:34:56.945Z,14.80
2023-05-03T05:36:29.322Z,14.94
2023-05-03T05:37:51.571Z,15.24
2023-05-03T05:39:29.528Z,15.41
2023-05-03T05:40:52.226Z,15.49
2023-05-03T05:42:17.907Z,15.60
2023-05-03T05:43:41.061Z,15.73
2023-05-03T05:45:03.990Z,15.65
2023-05-03T05:47:18.545Z,15.73
2023-05-03T05:48:43.710Z,15.94
2023-05-03T05:50:18.522Z,16.11
2023-05-03T05:51:48.363Z,16.22
2023-05-03T05:53:11.118Z,16.33
2023-05-03T05:54:37.934Z,16.50
2023-05-03T05:56:05.478Z,16.58
2023-05-03T05:57:29.206Z,16.70
2023-05-03T05:58:51.829Z,16.88
2023-05-03T06:00:27.656Z,16.93
2023-05-03T06:02:41.529Z,16.95
2023-05-03T06:04:09.375Z,17.12
2023-05-03T06:05:34.294Z,17.18
2023-05-03T06:06:57.088Z,17.40
2023-05-03T06:08:27.994Z,17.61
2023-05-03T06:09:52.797Z,17.72
2023-05-03T06:11:20.215Z,17.71
2023-05-03T06:12:43.142Z,17.84
2023-05-03T06:14:11.147Z,17.89
2023-05-03T06:15:39.022Z,17.94
2023-05-03T06:17:09.160Z,17.95
2023-05-03T06:18:39.958Z,17.99
2023-05-03T06:20:05.052Z,18.00
2023-05-03T06:21:30.467Z,17.94
2023-05-03T06:22:52.732Z,18.09
2023-05-03T06:24:21.348Z,18.03
2023-05-03T06:25:55.486Z,18.11
2023-05-03T06:27:18.855Z,18.10
2023-05-03T06:28:43.308Z,18.15
2023-05-03T06:30:08.866Z,18.20
2023-05-03T06:31:34.418Z,18.11
2023-05-03T06:32:59.470Z,18.22
2023-05-03T06:34:23.908Z,18.27
2023-05-03T06:35:59.405Z,18.34
2023-05-03T06:37:26.379Z,18.38
2023-05-03T06:38:50.472Z,18.43
2023-05-03T06:40:13.681Z,18.40
2023-05-03T06:41:39.092Z,18.38
2023-05-03T06:43:01.997Z,18.34
2023-05-03T06:44:36.161Z,18.33
2023-05-03T06:45:58.749Z,18.29
2023-05-03T06:47:24.302Z,18.23
2023-05-03T06:51:07.709Z,18.29
2023-05-03T06:52:33.216Z,18.29
2023-05-03T06:53:56.437Z,18.40
2023-05-03T06:55:19.134Z,18.46
2023-05-03T06:57:10.861Z,18.61
2023-05-03T06:58:51.805Z,18.66
2023-05-03T07:00:16.294Z,18.71
2023-05-03T07:01:40.440Z,18.86
2023-05-03T07:03:05.259Z,18.99
2023-05-03T07:04:39.800Z,19.01
2023-05-03T07:06:02.533Z,19.11
2023-05-03T07:07:26.130Z,19.21
2023-05-03T07:08:52.698Z,19.39
2023-05-03T07:10:31.596Z,19.50
2023-05-03T07:11:54.567Z,19.72
2023-05-03T07:13:24.772Z,19.82
2023-05-03T07:14:47.738Z,19.97
2023-05-03T07:16:11.942Z,20.23
2023-05-03T07:17:35.292Z,20.36
2023-05-03T07:19:00.400Z,20.56
2023-05-03T07:20:53.947Z,20.88
2023-05-03T07:22:20.994Z,21.30
2023-05-03T07:23:53.861Z,21.69
2023-05-03T07:25:20.365Z,21.97
2023-05-03T07:26:50.689Z,22.30
2023-05-03T07:28:13.088Z,22.64
2023-05-03T07:29:35.469Z,23.09
2023-05-03T07:30:58.743Z,23.46
2023-05-03T07:32:29.023Z,23.78
2023-05-03T07:33:51.879Z,23.95
2023-05-03T07:35:15.029Z,24.13
2023-05-03T07:36:37.407Z,24.43
2023-05-03T07:38:03.089Z,24.63
2023-05-03T07:39:38.125Z,24.76
2023-05-03T07:41:00.848Z,24.92
2023-05-03T07:42:23.748Z,25.18
2023-05-03T07:43:53.632Z,25.30
2023-05-03T07:45:16.793Z,25.42
2023-05-03T07:46:50.277Z,25.45
2023-05-03T07:48:17.764Z,25.48
2023-05-03T07:49:45.704Z,25.63
2023-05-03T07:51:08.328Z,25.62
2023-05-03T07:52:40.041Z,25.83
2023-05-03T07:54:22.150Z,26.14
2023-05-03T07:55:48.111Z,26.39
2023-05-03T07:57:12.221Z,26.62
2023-05-03T07:58:43.658Z,27.15
2023-05-03T08:00:19.859Z,27.81
2023-05-03T08:01:51.024Z,28.52
2023-05-03T08:03:16.159Z,29.09
2023-05-03T08:04:39.663Z,28.93
2023-05-03T08:06:04.779Z,28.81
2023-05-03T08:07:33.318Z,28.73
2023-05-03T08:09:00.833Z,28.52
2023-05-03T08:10:26.593Z,29.71
2023-05-03T08:12:12.885Z,32.81
2023-05-03T08:15:26.109Z,37.86
2023-05-03T08:16:48.245Z,39.90
2023-05-03T08:18:22.305Z,41.11
2023-05-03T08:19:50.097Z,40.90
2023-05-03T08:21:13.770Z,39.20
2023-05-03T08:22:45.572Z,37.99
2023-05-03T08:24:10.479Z,36.75
2023-05-03T08:25:37.582Z,35.61
2023-05-03T08:27:01.692Z,34.99
2023-05-03T08:28:26.350Z,34.06
2023-05-03T08:30:25.495Z,33.10
2023-05-03T08:31:49.364Z,32.19
2023-05-03T08:33:12.253Z,32.08
2023-05-03T08:34:38.183Z,35.48
2023-05-03T08:36:00.644Z,38.21
2023-05-03T08:38:20.238Z,37.86
2023-05-03T08:39:42.861Z,36.20
2023-05-03T08:41:14.951Z,35.30
2023-05-03T08:43:01.053Z,38.10
2023-05-03T08:44:25.746Z,39.19
2023-05-03T08:45:49.998Z,41.22
2023-05-03T08:48:07.607Z,43.43
2023-05-03T08:50:08.302Z,46.18
2023-05-03T08:51:32.122Z,48.27
2023-05-03T08:53:16.158Z,49.86
2023-05-03T08:54:49.223Z,51.14
2023-05-03T08:56:20.519Z,48.69
2023-05-03T08:57:45.150Z,47.00
2023-05-03T08:59:14.885Z,45.71
2023-05-03T09:02:26.141Z,43.08
2023-05-03T09:04:05.204Z,41.59
2023-05-03T09:07:45.172Z,38.47
2023-05-03T09:09:47.317Z,37.15
2023-05-03T09:13:04.069Z,35.35
2023-05-03T09:14:27.311Z,34.93
2023-05-03T09:16:04.918Z,35.28
2023-05-03T09:18:56.127Z,37.15
2023-05-03T09:20:18.645Z,40.15
2023-05-03T09:21:53.566Z,42.83
2023-05-03T09:25:48.577Z,47.57
2023-05-03T09:27:22.761Z,49.09
2023-05-03T09:28:56.819Z,50.37
2023-05-03T09:33:32.764Z,53.64
2023-05-03T09:35:19.207Z,54.93
2023-05-03T09:44:10.925Z,58.51
2023-05-03T09:46:30.477Z,59.36
2023-05-03T10:03:36.861Z,47.10
2023-05-03T10:05:28.292Z,44.71
2023-05-03T10:07:19.713Z,42.93
2023-05-03T10:08:53.058Z,41.36
2023-05-03T10:11:07.546Z,44.32
2023-05-03T10:16:57.966Z,49.28
2023-05-03T10:19:48.695Z,48.15
2023-05-03T10:24:15.377Z,47.75
2023-05-03T10:26:37.169Z,48.94
2023-05-03T10:28:15.959Z,50.05
2023-05-03T10:30:09.554Z,50.30
2023-05-03T10:31:51.130Z,49.93
2023-05-03T10:33:40.213Z,47.76
2023-05-03T10:35:06.424Z,45.68
2023-05-03T10:36:59.098Z,43.77
2023-05-03T10:38:53.081Z,41.52
2023-05-03T10:41:07.412Z,39.06
2023-05-03T10:43:03.384Z,37.06
2023-05-03T10:44:59.491Z,35.58
2023-05-03T10:46:52.882Z,34.29
2023-05-03T10:48:23.853Z,33.28
2023-05-03T10:49:48.317Z,32.61
2023-05-03T10:51:41.484Z,31.72
2023-05-03T10:53:14.633Z,31.11
2023-05-03T10:55:01.018Z,30.32
2023-05-03T10:56:28.451Z,29.55
2023-05-03T10:57:59.114Z,28.78
2023-05-03T10:59:47.923Z,28.06
2023-05-03T11:01:33.727Z,27.27
2023-05-03T11:03:56.226Z,26.46
2023-05-03T11:05:24.028Z,26.08
2023-05-03T11:07:11.348Z,25.91
2023-05-03T11:09:47.048Z,25.72
2023-05-03T11:12:07.561Z,25.27
2023-05-03T11:13:39.993Z,25.03
2023-05-03T11:16:09.814Z,24.64
2023-05-03T11:17:45.995Z,24.17
2023-05-03T11:20:11.913Z,23.97
2023-05-03T11:21:37.846Z,23.76
2023-05-03T11:23:02.879Z,23.87
2023-05-03T11:24:27.566Z,23.80
2023-05-03T11:25:50.759Z,23.86
2023-05-03T11:27:16.908Z,23.95
2023-05-03T11:28:58.279Z,23.91
2023-05-03T11:30:28.117Z,23.97
2023-05-03T11:31:53.096Z,23.78
2023-05-03T11:33:16.044Z,23.67
2023-05-03T11:34:42.914Z,23.36
2023-05-03T11:38:30.360Z,22.74
2023-05-03T11:39:53.151Z,22.52
2023-05-03T11:41:16.934Z,22.23
2023-05-03T11:42:52.547Z,21.98
2023-05-03T11:44:17.724Z,21.80
2023-05-03T11:45:44.440Z,21.68
2023-05-03T11:47:09.641Z,21.57
2023-05-03T11:48:35.257Z,21.45
2023-05-03T11:50:02.416Z,21.30
2023-05-03T11:51:54.410Z,21.33
2023-05-03T11:53:20.896Z,21.30
2023-05-03T11:54:49.442Z,21.30
2023-05-03T11:57:05.577Z,21.20
2023-05-03T11:58:28.104Z,21.20
2023-05-03T11:59:50.539Z,21.15
2023-05-03T12:01:13.242Z,21.11
2023-05-03T12:03:40.943Z,20.94
2023-05-03T12:05:14.371Z,20.80
2023-05-03T12:06:38.886Z,20.68
2023-05-03T12:08:05.591Z,20.65
2023-05-03T12:09:39.899Z,20.83
2023-05-03T12:11:11.103Z,20.92
2023-05-03T12:12:50.081Z,21.04
2023-05-03T12:14:25.076Z,21.23
2023-05-03T12:18:01.120Z,21.33
2023-05-03T12:19:32.792Z,21.37
2023-05-03T12:22:41.983Z,21.28
2023-05-03T12:24:10.821Z,21.11
2023-05-03T12:26:15.112Z,21.06
2023-05-03T12:27:49.976Z,20.76
2023-05-03T12:29:35.129Z,20.63
2023-05-03T12:31:23.841Z,20.44
2023-05-03T12:32:46.934Z,20.22
2023-05-03T12:34:31.746Z,19.91
2023-05-03T12:35:54.141Z,19.72
2023-05-03T12:37:27.070Z,19.48
2023-05-03T12:38:56.200Z,19.20
2023-05-03T12:40:34.271Z,19.05
2023-05-03T12:43:26.665Z,18.84
2023-05-03T12:45:03.158Z,18.74
2023-05-03T12:46:34.453Z,18.82
2023-05-03T12:48:05.622Z,18.80
2023-05-03T12:49:30.904Z,18.76
2023-05-03T12:51:13.362Z,18.79
2023-05-03T12:52:52.418Z,18.73
2023-05-03T12:54:19.062Z,18.70
2023-05-03T12:55:43.110Z,18.75
2023-05-03T12:57:15.600Z,18.72
2023-05-03T13:04:00.931Z,18.42
2023-05-03T13:05:35.836Z,18.33
2023-05-03T13:07:01.069Z,18.18
2023-05-03T13:08:33.548Z,18.21
2023-05-03T13:11:22.402Z,18.14
2023-05-03T13:12:47.543Z,18.23
2023-05-03T13:14:14.670Z,18.18
2023-05-03T13:15:38.139Z,18.37
2023-05-03T13:17:03.357Z,18.48
2023-05-03T13:22:01.139Z,18.64
2023-05-03T13:23:25.885Z,18.81
2023-05-03T13:24:58.485Z,18.81
2023-05-03T13:26:21.942Z,18.83
2023-05-03T13:28:13.238Z,18.80
2023-05-03T13:29:47.570Z,18.87
2023-05-03T13:31:15.281Z,18.82
2023-05-03T13:32:37.675Z,18.70
2023-05-03T13:34:12.177Z,18.78
2023-05-03T13:35:52.375Z,18.71
2023-05-03T13:37:44.851Z,18.76
2023-05-03T13:39:27.808Z,18.73
2023-05-03T13:42:01.058Z,18.85
2023-05-03T13:43:48.448Z,18.85
2023-05-03T13:45:37.264Z,18.95
2023-05-03T13:46:59.722Z,18.86
2023-05-03T13:48:38.111Z,18.82
2023-05-03T13:50:01.592Z,18.80
2023-05-03T13:55:53.622Z,18.35
2023-05-03T13:57:24.934Z,18.33
2023-05-03T14:00:01.510Z,18.20
2023-05-03T14:01:28.711Z,18.01
2023-05-03T14:02:58.038Z,17.93
2023-05-03T14:04:24.094Z,17.82
2023-05-03T14:05:53.983Z,17.71
2023-05-03T14:07:28.360Z,17.60
2023-05-03T14:09:20.618Z,17.60
2023-05-03T14:11:07.027Z,17.53
2023-05-03T14:12:40.213Z,17.43
2023-05-03T14:15:14.626Z,17.36
2023-05-03T14:16:48.618Z,17.34
2023-05-03T14:18:34.623Z,17.27
2023-05-03T14:21:12.414Z,17.20
2023-05-03T14:22:38.802Z,16.97
2023-05-03T14:24:09.226Z,17.08
2023-05-03T14:25:47.346Z,17.03
2023-05-03T14:27:17.565Z,16.89
2023-05-03T14:28:51.913Z,16.99
2023-05-03T14:30:16.398Z,16.91
2023-05-03T14:31:42.680Z,16.89
2023-05-03T14:33:07.895Z,16.90
2023-05-03T14:34:38.702Z,16.84
2023-05-03T14:36:05.669Z,16.82
2023-05-03T14:37:38.012Z,16.87
2023-05-03T14:39:02.353Z,16.74
2023-05-03T14:40:25.415Z,16.71
2023-05-03T14:41:51.432Z,16.74
2023-05-03T14:43:19.975Z,16.65
2023-05-03T14:44:46.120Z,16.74
2023-05-03T14:46:14.089Z,16.57
2023-05-03T14:47:59.024Z,16.66
2023-05-03T14:49:59.261Z,16.52
2023-05-03T14:51:23.861Z,16.50
2023-05-03T14:52:52.423Z,16.44
2023-05-03T14:54:16.261Z,16.43
2023-05-03T14:55:39.283Z,16.40
2023-05-03T14:57:05.178Z,16.41
2023-05-03T14:58:28.020Z,16.41
2023-05-03T14:59:51.148Z,16.37
2023-05-03T15:01:22.228Z,16.43
2023-05-03T15:02:47.021Z,16.26
2023-05-03T15:04:12.042Z,16.34
2023-05-03T15:05:46.193Z,16.24
2023-05-03T15:07:14.363Z,16.26
2023-05-03T15:08:40.604Z,16.30
2023-05-03T15:10:10.776Z,16.25
2023-05-03T15:11:33.697Z,16.14
2023-05-03T15:12:56.343Z,16.24
2023-05-03T15:14:20.698Z,16.13
2023-05-03T15:15:44.507Z,16.10
2023-05-03T15:17:06.799Z,16.23
2023-05-03T15:18:29.327Z,16.20
2023-05-03T15:19:54.184Z,16.13
2023-05-03T15:21:27.656Z,16.16
2023-05-03T15:23:04.672Z,16.15
2023-05-03T15:24:41.756Z,16.19
2023-05-03T15:26:15.280Z,16.34
2023-05-03T15:27:43.626Z,16.33
2023-05-03T15:29:08.429Z,16.31
2023-05-03T15:30:31.512Z,16.32
2023-05-03T15:31:59.753Z,16.30
2023-05-03T15:35:29.858Z,16.23
2023-05-03T15:36:56.736Z,16.27
2023-05-03T15:38:19.641Z,16.29
2023-05-03T15:39:41.988Z,16.30
2023-05-03T15:41:13.025Z,16.19
2023-05-03T15:43:00.976Z,16.29
2023-05-03T15:44:23.616Z,16.21
2023-05-03T15:45:47.434Z,16.26
2023-05-03T15:47:16.912Z,16.27
2023-05-03T15:48:39.690Z,16.15
2023-05-03T15:50:02.551Z,16.18
2023-05-03T15:51:37.951Z,16.23
2023-05-03T15:53:04.245Z,16.28
2023-05-03T15:54:28.598Z,16.21
2023-05-03T15:56:04.050Z,16.32
2023-05-03T15:57:37.626Z,16.30
2023-05-03T15:59:00.127Z,16.35
2023-05-03T16:00:35.955Z,16.45
2023-05-03T16:02:23.965Z,16.35
2023-05-03T16:03:48.106Z,16.45
2023-05-03T16:05:13.231Z,16.37
2023-05-03T16:06:36.317Z,16.50
2023-05-03T16:07:59.418Z,16.44
2023-05-03T16:09:26.164Z,16.39
2023-05-03T16:10:48.809Z,16.33
2023-05-03T16:12:11.414Z,16.33
2023-05-03T16:13:36.391Z,16.40
2023-05-03T16:15:01.175Z,16.34
2023-05-03T16:16:24.017Z,16.33
2023-05-03T16:17:49.879Z,16.37
2023-05-03T16:19:12.737Z,16.28
2023-05-03T16:20:35.296Z,16.25
2023-05-03T16:22:01.420Z,16.28
2023-05-03T16:23:43.231Z,16.26
2023-05-03T16:25:13.738Z,16.20
2023-05-03T16:29:25.694Z,16.09
2023-05-03T16:31:14.316Z,16.15
2023-05-03T16:32:38.971Z,16.11
2023-05-03T16:34:21.689Z,16.09
2023-05-03T16:36:45.776Z,15.91
2023-05-03T16:39:57.374Z,15.92
2023-05-03T16:41:26.163Z,15.94
2023-05-03T16:42:55.276Z,15.92
2023-05-03T16:44:28.801Z,15.96
2023-05-03T16:46:05.171Z,15.92
2023-05-03T16:47:30.366Z,15.85
2023-05-03T16:48:55.693Z,15.90
2023-05-03T16:50:40.351Z,15.95
2023-05-03T16:52:13.916Z,15.87
2023-05-03T16:53:37.333Z,15.85
2023-05-03T16:55:01.060Z,15.81
2023-05-03T16:56:31.761Z,15.77
2023-05-03T16:58:05.570Z,15.81
2023-05-03T16:59:34.063Z,15.80
2023-05-03T17:01:39.528Z,15.77
2023-05-03T17:03:09.765Z,15.66
2023-05-03T17:07:12.954Z,15.50
2023-05-03T17:08:36.259Z,15.50
2023-05-03T17:10:10.864Z,15.54
2023-05-03T17:11:40.576Z,15.50
2023-05-03T17:13:04.156Z,15.53
2023-05-03T17:14:28.268Z,15.48
2023-05-03T17:15:59.401Z,15.41
2023-05-03T17:17:32.013Z,15.36
2023-05-03T17:18:57.953Z,15.34
2023-05-03T17:20:28.305Z,15.31
2023-05-03T17:21:55.746Z,15.28
2023-05-03T17:23:24.270Z,15.24
2023-05-03T17:27:51.551Z,15.25
2023-05-03T17:29:20.293Z,15.13
2023-05-03T17:31:18.270Z,15.19
2023-05-03T17:32:43.635Z,15.03
2023-05-03T17:34:17.791Z,15.14
2023-05-03T17:35:43.116Z,15.06
2023-05-03T17:37:16.751Z,14.99
2023-05-03T17:39:41.460Z,14.90
2023-05-03T17:41:10.863Z,14.91
2023-05-03T17:42:37.935Z,14.88
2023-05-03T17:44:13.480Z,14.82
2023-05-03T17:45:47.568Z,14.81
2023-05-03T17:47:31.870Z,14.86
2023-05-03T17:49:00.130Z,14.78
2023-05-03T17:50:29.506Z,14.79
2023-05-03T17:51:59.191Z,14.79
2023-05-03T17:53:23.354Z,14.73
2023-05-03T17:54:48.830Z,14.59
2023-05-03T17:56:20.323Z,14.58
2023-05-03T17:57:48.493Z,14.68
2023-05-03T17:59:47.768Z,14.51
2023-05-03T18:01:37.907Z,14.55
2023-05-03T18:03:00.622Z,14.50
2023-05-03T18:04:23.404Z,14.46
2023-05-03T18:05:46.191Z,14.44
2023-05-03T18:07:10.696Z,14.48
2023-05-03T18:08:35.461Z,14.44
2023-05-03T18:09:59.871Z,14.32
2023-05-03T18:11:28.286Z,14.43
2023-05-03T18:13:07.785Z,14.35
2023-05-03T18:14:41.189Z,14.37
2023-05-03T18:16:11.963Z,14.25
2023-05-03T18:17:33.356Z,14.33
2023-05-03T18:19:12.198Z,14.33
2023-05-03T18:20:49.141Z,14.20
2023-05-03T18:22:19.922Z,14.24
2023-05-03T18:23:52.406Z,14.14
2023-05-03T18:25:20.274Z,14.12
2023-05-03T18:26:49.943Z,14.08
2023-05-03T18:28:17.542Z,14.10
2023-05-03T18:33:04.017Z,13.98
2023-05-03T18:34:32.267Z,13.97
2023-05-03T18:36:28.415Z,13.92
2023-05-03T18:38:09.017Z,13.97
2023-05-03T18:39:35.448Z,13.87
2023-05-03T18:42:04.942Z,13.88
2023-05-03T18:44:09.676Z,13.82
2023-05-03T18:45:42.227Z,13.79
2023-05-03T18:47:38.812Z,13.88
2023-05-03T18:49:55.949Z,13.75
2023-05-03T18:54:11.248Z,13.78
2023-05-03T18:57:37.680Z,13.62
2023-05-03T18:59:14.009Z,13.69
2023-05-03T19:00:42.231Z,13.56
2023-05-03T19:02:14.815Z,13.59
2023-05-03T19:04:03.001Z,13.68
2023-05-03T19:05:49.797Z,13.50
2023-05-03T19:09:21.472Z,13.57
2023-05-03T19:10:53.045Z,13.45
2023-05-03T19:12:44.330Z,13.43
2023-05-03T19:14:48.856Z,13.41
2023-05-03T19:16:11.979Z,13.49
2023-05-03T19:17:35.052Z,13.37
2023-05-03T19:18:59.149Z,13.38
2023-05-03T19:20:45.088Z,13.35
2023-05-03T19:22:15.766Z,13.41
2023-05-03T19:23:47.490Z,13.33
2023-05-03T19:25:53.506Z,13.44
2023-05-03T19:28:08.270Z,13.25
2023-05-03T19:30:20.180Z,13.24
2023-05-03T19:32:06.881Z,13.22
2023-05-03T19:33:49.873Z,13.18
2023-05-03T19:35:58.562Z,13.15
2023-05-03T19:37:33.289Z,13.22
2023-05-03T19:38:59.237Z,13.15
2023-05-03T19:40:31.665Z,13.15
2023-05-03T19:42:15.529Z,13.10
2023-05-03T19:44:00.154Z,13.19
2023-05-03T19:45:36.811Z,13.23
2023-05-03T19:47:02.203Z,13.18
2023-05-03T19:48:30.600Z,13.10
2023-05-03T19:49:59.072Z,13.07
2023-05-03T19:51:24.330Z,13.17
2023-05-03T19:53:28.687Z,13.04
2023-05-03T19:56:03.831Z,13.01
2023-05-03T19:57:36.812Z,13.08
2023-05-03T19:59:15.698Z,12.97
2023-05-03T20:00:46.469Z,13.03
2023-05-03T20:02:24.860Z,12.93
2023-05-03T20:04:01.754Z,12.91
2023-05-03T20:05:43.341Z,12.99
2023-05-03T20:07:12.794Z,12.90
2023-05-03T20:08:54.467Z,12.88
2023-05-03T20:10:22.031Z,12.96
2023-05-03T20:11:47.240Z,12.92
2023-05-03T20:13:16.968Z,13.00
2023-05-03T20:14:50.711Z,12.85
2023-05-03T20:16:19.331Z,12.84
2023-05-03T20:17:53.248Z,12.81
2023-05-03T20:19:33.108Z,12.80
2023-05-03T20:22:23.762Z,12.80
2023-05-03T20:23:58.853Z,12.88
2023-05-03T20:25:23.314Z,12.77
2023-05-03T20:26:45.834Z,12.77
2023-05-03T20:28:11.576Z,12.79
2023-05-03T20:30:19.489Z,12.87
2023-05-03T20:31:48.330Z,12.87
2023-05-03T20:33:14.361Z,12.84
2023-05-03T20:34:37.109Z,12.70
2023-05-03T20:36:00.497Z,12.77
2023-05-03T20:40:03.136Z,12.80
2023-05-03T20:41:27.488Z,12.66
2023-05-03T20:43:05.799Z,12.64
2023-05-03T20:44:41.492Z,12.76
2023-05-03T20:46:07.697Z,12.65
2023-05-03T20:47:32.833Z,12.60
2023-05-03T20:48:57.716Z,12.65
2023-05-03T20:54:16.116Z,12.54
2023-05-03T20:55:58.969Z,12.52
2023-05-03T20:57:38.472Z,12.65
2023-05-03T20:59:13.534Z,12.50
2023-05-03T21:00:39.035Z,12.48
2023-05-03T21:04:38.531Z,12.55
2023-05-03T21:08:05.298Z,12.39
2023-05-03T21:09:31.476Z,12.36
2023-05-03T21:11:25.295Z,12.38
2023-05-03T21:15:12.303Z,12.40
2023-05-03T21:16:47.002Z,12.25
2023-05-03T21:18:23.184Z,12.25
2023-05-03T21:19:56.128Z,12.24
2023-05-03T21:21:43.093Z,12.21
2023-05-03T21:23:09.479Z,12.25
2023-05-03T21:24:54.753Z,12.18
2023-05-03T21:26:33.893Z,12.22
2023-05-03T21:28:06.047Z,12.24
2023-05-03T21:29:36.044Z,12.13
2023-05-03T21:31:11.833Z,12.19
2023-05-03T21:34:30.305Z,12.15
2023-05-03T21:36:01.928Z,12.03